sensor_id;sensor_type;location;lat;lon;timestamp;temperature;humidity
26575;DHT22;67165;50.256;10.978;2023-04-24T00:01:55;10.30;98.00
26575;DHT22;67165;50.256;10.978;2023-04-24T00:04:21;10.20;98.00
26575;DHT22;67165;50.256;10.978;2023-04-24T00:06:50;10.20;98.00
26575;DHT22;67165;50.256;10.978;2023-04-24T00:09:19;10.20;98.00
26575;DHT22;67165;50.256;10.978;2023-04-24T00:11:45;10.10;98.00
26575;DHT22;67165;50.256;10.978;2023-04-24T00:14:13;10.10;98.00
26575;DHT22;67165;50.256;10.978;2023-04-24T00:16:39;10.10;98.00
26575;DHT22;67165;50.256;10.978;2023-04-24T00:19:05;10.10;98.00
26575;DHT22;67165;50.256;10.978;2023-04-24T00:21:32;10.10;98.00
26575;DHT22;67165;50.256;10.978;2023-04-24T00:24:00;10.00;98.00
26575;DHT22;67165;50.256;10.978;2023-04-24T00:26:31;10.10;98.00
26575;DHT22;67165;50.256;10.978;2023-04-24T00:28:56;10.10;98.00
26575;DHT22;67165;50.256;10.978;2023-04-24T00:31:32;10.10;98.00
26575;DHT22;67165;50.256;10.978;2023-04-24T00:34:00;10.10;98.00
26575;DHT22;67165;50.256;10.978;2023-04-24T00:36:27;10.10;98.00
26575;DHT22;67165;50.256;10.978;2023-04-24T00:38:55;10.10;98.00
26575;DHT22;67165;50.256;10.978;2023-04-24T00:41:24;10.10;98.00
26575;DHT22;67165;50.256;10.978;2023-04-24T00:43:52;10.10;98.00
26575;DHT22;67165;50.256;10.978;2023-04-24T00:46:19;10.10;98.00
26575;DHT22;67165;50.256;10.978;2023-04-24T00:48:47;10.10;98.00
26575;DHT22;67165;50.256;10.978;2023-04-24T00:51:13;10.10;98.00
26575;DHT22;67165;50.256;10.978;2023-04-24T00:53:41;10.10;98.00
26575;DHT22;67165;50.256;10.978;2023-04-24T00:56:10;10.10;98.00
26575;DHT22;67165;50.256;10.978;2023-04-24T00:58:36;10.00;98.00
26575;DHT22;67165;50.256;10.978;2023-04-24T01:01:02;10.00;98.00
26575;DHT22;67165;50.256;10.978;2023-04-24T01:03:33;10.00;98.00
26575;DHT22;67165;50.256;10.978;2023-04-24T01:06:02;10.00;98.00
26575;DHT22;67165;50.256;10.978;2023-04-24T01:08:32;10.00;98.00
26575;DHT22;67165;50.256;10.978;2023-04-24T01:11:04;10.00;98.00
26575;DHT22;67165;50.256;10.978;2023-04-24T01:13:31;10.00;98.00
26575;DHT22;67165;50.256;10.978;2023-04-24T01:16:00;10.00;98.00
26575;DHT22;67165;50.256;10.978;2023-04-24T01:18:27;10.10;98.00
26575;DHT22;67165;50.256;10.978;2023-04-24T01:20:56;10.00;98.00
26575;DHT22;67165;50.256;10.978;2023-04-24T01:23:26;10.00;98.00
26575;DHT22;67165;50.256;10.978;2023-04-24T01:25:52;10.00;98.00
26575;DHT22;67165;50.256;10.978;2023-04-24T01:28:18;10.00;98.00
26575;DHT22;67165;50.256;10.978;2023-04-24T01:30:44;10.00;98.00
26575;DHT22;67165;50.256;10.978;2023-04-24T01:33:10;10.00;98.00
26575;DHT22;67165;50.256;10.978;2023-04-24T01:35:38;10.00;98.00
26575;DHT22;67165;50.256;10.978;2023-04-24T01:38:07;10.00;98.00
26575;DHT22;67165;50.256;10.978;2023-04-24T01:40:35;10.00;98.00
26575;DHT22;67165;50.256;10.978;2023-04-24T01:43:02;10.00;98.00
26575;DHT22;67165;50.256;10.978;2023-04-24T01:45:28;10.00;98.00
26575;DHT22;67165;50.256;10.978;2023-04-24T01:47:59;10.00;98.00
26575;DHT22;67165;50.256;10.978;2023-04-24T01:50:25;10.10;98.00
26575;DHT22;67165;50.256;10.978;2023-04-24T01:52:51;10.00;98.00
26575;DHT22;67165;50.256;10.978;2023-04-24T01:55:20;10.00;98.00
26575;DHT22;67165;50.256;10.978;2023-04-24T01:57:49;10.00;98.00
26575;DHT22;67165;50.256;10.978;2023-04-24T02:00:15;10.00;98.00
26575;DHT22;67165;50.256;10.978;2023-04-24T02:02:41;10.00;98.00
26575;DHT22;67165;50.256;10.978;2023-04-24T02:05:10;10.00;98.00
26575;DHT22;67165;50.256;10.978;2023-04-24T02:07:38;10.00;98.00
26575;DHT22;67165;50.256;10.978;2023-04-24T02:10:05;10.00;98.00
26575;DHT22;67165;50.256;10.978;2023-04-24T02:12:34;10.00;98.00
26575;DHT22;67165;50.256;10.978;2023-04-24T02:15:02;10.00;98.00
26575;DHT22;67165;50.256;10.978;2023-04-24T02:17:28;10.00;98.00
26575;DHT22;67165;50.256;10.978;2023-04-24T02:19:57;10.00;98.00
26575;DHT22;67165;50.256;10.978;2023-04-24T02:22:28;10.00;98.00
26575;DHT22;67165;50.256;10.978;2023-04-24T02:24:56;10.00;98.00
26575;DHT22;67165;50.256;10.978;2023-04-24T02:27:25;10.00;98.00
26575;DHT22;67165;50.256;10.978;2023-04-24T02:29:56;9.90;98.00
26575;DHT22;67165;50.256;10.978;2023-04-24T02:32:21;10.00;98.00
26575;DHT22;67165;50.256;10.978;2023-04-24T02:34:50;9.90;98.00
26575;DHT22;67165;50.256;10.978;2023-04-24T02:37:18;9.90;98.00
26575;DHT22;67165;50.256;10.978;2023-04-24T02:39:44;9.80;98.00
26575;DHT22;67165;50.256;10.978;2023-04-24T02:42:15;9.80;98.00
26575;DHT22;67165;50.256;10.978;2023-04-24T02:44:46;9.80;98.00
26575;DHT22;67165;50.256;10.978;2023-04-24T02:47:11;9.70;98.00
26575;DHT22;67165;50.256;10.978;2023-04-24T02:49:40;9.80;98.00
26575;DHT22;67165;50.256;10.978;2023-04-24T02:52:09;9.80;98.00
26575;DHT22;67165;50.256;10.978;2023-04-24T02:54:39;9.70;98.00
26575;DHT22;67165;50.256;10.978;2023-04-24T02:57:05;9.70;98.00
26575;DHT22;67165;50.256;10.978;2023-04-24T02:59:32;9.70;98.00
26575;DHT22;67165;50.256;10.978;2023-04-24T03:02:01;9.60;98.00
26575;DHT22;67165;50.256;10.978;2023-04-24T03:04:30;9.60;98.00
26575;DHT22;67165;50.256;10.978;2023-04-24T03:06:55;9.60;98.00
26575;DHT22;67165;50.256;10.978;2023-04-24T03:09:24;9.60;98.00
26575;DHT22;67165;50.256;10.978;2023-04-24T03:11:56;9.60;98.00
26575;DHT22;67165;50.256;10.978;2023-04-24T03:14:24;9.60;98.00
26575;DHT22;67165;50.256;10.978;2023-04-24T03:16:50;9.50;98.00
26575;DHT22;67165;50.256;10.978;2023-04-24T03:19:16;9.60;98.00
26575;DHT22;67165;50.256;10.978;2023-04-24T03:21:44;9.50;98.00
26575;DHT22;67165;50.256;10.978;2023-04-24T03:24:09;9.60;98.00
26575;DHT22;67165;50.256;10.978;2023-04-24T03:26:35;9.60;98.00
26575;DHT22;67165;50.256;10.978;2023-04-24T03:29:04;9.70;98.00
26575;DHT22;67165;50.256;10.978;2023-04-24T03:31:29;9.70;98.00
26575;DHT22;67165;50.256;10.978;2023-04-24T03:33:55;9.70;98.00
26575;DHT22;67165;50.256;10.978;2023-04-24T03:36:26;9.80;98.00
26575;DHT22;67165;50.256;10.978;2023-04-24T03:38:58;9.80;98.00
26575;DHT22;67165;50.256;10.978;2023-04-24T03:41:24;9.70;98.00
26575;DHT22;67165;50.256;10.978;2023-04-24T03:43:50;9.70;98.00
26575;DHT22;67165;50.256;10.978;2023-04-24T03:46:16;9.80;98.00
26575;DHT22;67165;50.256;10.978;2023-04-24T03:48:44;9.80;98.00
26575;DHT22;67165;50.256;10.978;2023-04-24T03:51:12;9.80;98.00
26575;DHT22;67165;50.256;10.978;2023-04-24T03:53:40;9.80;98.00
26575;DHT22;67165;50.256;10.978;2023-04-24T03:56:08;9.80;98.00
26575;DHT22;67165;50.256;10.978;2023-04-24T03:58:34;9.80;98.00
26575;DHT22;67165;50.256;10.978;2023-04-24T04:01:00;9.80;98.00
26575;DHT22;67165;50.256;10.978;2023-04-24T04:03:26;9.80;98.00
26575;DHT22;67165;50.256;10.978;2023-04-24T04:05:52;9.80;98.00
26575;DHT22;67165;50.256;10.978;2023-04-24T04:08:21;9.80;98.00
26575;DHT22;67165;50.256;10.978;2023-04-24T04:10:50;9.80;98.00
26575;DHT22;67165;50.256;10.978;2023-04-24T04:13:18;9.80;98.00
26575;DHT22;67165;50.256;10.978;2023-04-24T04:15:46;9.80;98.00
26575;DHT22;67165;50.256;10.978;2023-04-24T04:18:15;9.90;98.00
26575;DHT22;67165;50.256;10.978;2023-04-24T04:20:41;9.90;98.00
26575;DHT22;67165;50.256;10.978;2023-04-24T04:23:07;9.90;98.00
26575;DHT22;67165;50.256;10.978;2023-04-24T04:25:32;9.90;98.00
26575;DHT22;67165;50.256;10.978;2023-04-24T04:27:58;10.00;98.00
26575;DHT22;67165;50.256;10.978;2023-04-24T04:30:25;10.00;98.00
26575;DHT22;67165;50.256;10.978;2023-04-24T04:32:59;10.10;98.00
26575;DHT22;67165;50.256;10.978;2023-04-24T04:35:30;10.10;98.00
26575;DHT22;67165;50.256;10.978;2023-04-24T04:37:58;10.10;98.00
26575;DHT22;67165;50.256;10.978;2023-04-24T04:40:24;10.10;98.00
26575;DHT22;67165;50.256;10.978;2023-04-24T04:42:52;10.10;98.00
26575;DHT22;67165;50.256;10.978;2023-04-24T04:45:20;10.10;98.00
26575;DHT22;67165;50.256;10.978;2023-04-24T04:47:49;10.10;98.00
26575;DHT22;67165;50.256;10.978;2023-04-24T04:50:16;10.10;98.00
26575;DHT22;67165;50.256;10.978;2023-04-24T04:52:43;10.10;98.00
26575;DHT22;67165;50.256;10.978;2023-04-24T04:55:12;10.10;98.00
26575;DHT22;67165;50.256;10.978;2023-04-24T04:57:39;10.10;98.00
26575;DHT22;67165;50.256;10.978;2023-04-24T05:00:08;10.10;98.00
26575;DHT22;67165;50.256;10.978;2023-04-24T05:02:36;10.20;98.00
26575;DHT22;67165;50.256;10.978;2023-04-24T05:05:01;10.20;98.00
26575;DHT22;67165;50.256;10.978;2023-04-24T05:07:30;10.30;98.00
26575;DHT22;67165;50.256;10.978;2023-04-24T05:09:56;10.30;98.00
26575;DHT22;67165;50.256;10.978;2023-04-24T05:12:24;10.30;98.00
26575;DHT22;67165;50.256;10.978;2023-04-24T05:14:50;10.40;98.00
26575;DHT22;67165;50.256;10.978;2023-04-24T05:17:18;10.40;98.00
26575;DHT22;67165;50.256;10.978;2023-04-24T05:19:44;10.50;98.00
26575;DHT22;67165;50.256;10.978;2023-04-24T05:22:12;10.50;98.00
26575;DHT22;67165;50.256;10.978;2023-04-24T05:24:38;10.50;98.00
26575;DHT22;67165;50.256;10.978;2023-04-24T05:27:09;10.60;98.00
26575;DHT22;67165;50.256;10.978;2023-04-24T05:29:38;10.60;98.00
26575;DHT22;67165;50.256;10.978;2023-04-24T05:32:09;10.60;98.00
26575;DHT22;67165;50.256;10.978;2023-04-24T05:34:40;10.60;98.00
26575;DHT22;67165;50.256;10.978;2023-04-24T05:37:08;10.60;98.00
26575;DHT22;67165;50.256;10.978;2023-04-24T05:39:35;10.70;98.00
26575;DHT22;67165;50.256;10.978;2023-04-24T05:42:04;10.80;98.00
26575;DHT22;67165;50.256;10.978;2023-04-24T05:44:35;10.80;98.00
26575;DHT22;67165;50.256;10.978;2023-04-24T05:47:01;10.90;98.00
26575;DHT22;67165;50.256;10.978;2023-04-24T05:49:27;10.90;98.00
26575;DHT22;67165;50.256;10.978;2023-04-24T05:51:53;10.90;98.00
26575;DHT22;67165;50.256;10.978;2023-04-24T05:54:19;10.80;98.00
26575;DHT22;67165;50.256;10.978;2023-04-24T05:56:47;10.80;98.00
26575;DHT22;67165;50.256;10.978;2023-04-24T05:59:12;10.80;98.00
26575;DHT22;67165;50.256;10.978;2023-04-24T06:01:41;10.80;98.00
26575;DHT22;67165;50.256;10.978;2023-04-24T06:04:10;10.80;98.00
26575;DHT22;67165;50.256;10.978;2023-04-24T06:06:41;10.80;98.00
26575;DHT22;67165;50.256;10.978;2023-04-24T06:09:11;10.90;98.00
26575;DHT22;67165;50.256;10.978;2023-04-24T06:11:42;10.80;98.00
26575;DHT22;67165;50.256;10.978;2023-04-24T06:14:10;10.80;98.00
26575;DHT22;67165;50.256;10.978;2023-04-24T06:16:38;10.80;98.00
26575;DHT22;67165;50.256;10.978;2023-04-24T06:19:07;10.80;98.00
26575;DHT22;67165;50.256;10.978;2023-04-24T06:21:33;10.80;98.00
26575;DHT22;67165;50.256;10.978;2023-04-24T06:24:04;10.70;98.00
26575;DHT22;67165;50.256;10.978;2023-04-24T06:26:32;10.80;98.00
26575;DHT22;67165;50.256;10.978;2023-04-24T06:28:58;10.80;98.00
26575;DHT22;67165;50.256;10.978;2023-04-24T06:31:27;10.80;98.00
26575;DHT22;67165;50.256;10.978;2023-04-24T06:33:55;10.80;98.00
26575;DHT22;67165;50.256;10.978;2023-04-24T06:36:27;10.90;98.00
26575;DHT22;67165;50.256;10.978;2023-04-24T06:38:55;10.90;98.00
26575;DHT22;67165;50.256;10.978;2023-04-24T06:41:23;11.00;98.00
26575;DHT22;67165;50.256;10.978;2023-04-24T06:43:51;11.00;98.00
26575;DHT22;67165;50.256;10.978;2023-04-24T06:46:22;11.00;98.00
26575;DHT22;67165;50.256;10.978;2023-04-24T06:48:51;11.10;98.00
26575;DHT22;67165;50.256;10.978;2023-04-24T06:51:20;11.10;98.00
26575;DHT22;67165;50.256;10.978;2023-04-24T06:53:50;11.10;98.00
26575;DHT22;67165;50.256;10.978;2023-04-24T06:56:19;11.20;98.00
26575;DHT22;67165;50.256;10.978;2023-04-24T06:58:49;11.30;98.00
26575;DHT22;67165;50.256;10.978;2023-04-24T07:01:25;11.40;98.00
26575;DHT22;67165;50.256;10.978;2023-04-24T07:04:12;11.40;98.00
26575;DHT22;67165;50.256;10.978;2023-04-24T07:06:40;11.50;98.00
26575;DHT22;67165;50.256;10.978;2023-04-24T07:09:13;11.60;98.00
26575;DHT22;67165;50.256;10.978;2023-04-24T07:12:12;11.70;98.00
26575;DHT22;67165;50.256;10.978;2023-04-24T07:14:52;11.80;98.00
26575;DHT22;67165;50.256;10.978;2023-04-24T07:17:38;11.80;98.00
26575;DHT22;67165;50.256;10.978;2023-04-24T07:20:14;11.80;98.00
26575;DHT22;67165;50.256;10.978;2023-04-24T07:22:46;11.80;98.00
26575;DHT22;67165;50.256;10.978;2023-04-24T07:25:14;11.80;98.00
26575;DHT22;67165;50.256;10.978;2023-04-24T07:27:45;11.70;98.00
26575;DHT22;67165;50.256;10.978;2023-04-24T07:30:14;11.70;98.00
26575;DHT22;67165;50.256;10.978;2023-04-24T07:32:40;11.70;98.00
26575;DHT22;67165;50.256;10.978;2023-04-24T07:35:24;11.70;98.00
26575;DHT22;67165;50.256;10.978;2023-04-24T07:37:54;11.80;98.00
26575;DHT22;67165;50.256;10.978;2023-04-24T07:40:20;11.80;98.00
26575;DHT22;67165;50.256;10.978;2023-04-24T07:42:46;12.00;98.00
26575;DHT22;67165;50.256;10.978;2023-04-24T07:45:14;12.40;98.00
26575;DHT22;67165;50.256;10.978;2023-04-24T07:47:41;12.70;98.00
26575;DHT22;67165;50.256;10.978;2023-04-24T07:50:09;12.80;98.00
26575;DHT22;67165;50.256;10.978;2023-04-24T07:52:35;13.10;98.00
26575;DHT22;67165;50.256;10.978;2023-04-24T07:55:01;13.20;98.00
26575;DHT22;67165;50.256;10.978;2023-04-24T07:57:28;13.10;98.00
26575;DHT22;67165;50.256;10.978;2023-04-24T07:59:54;13.20;98.00
26575;DHT22;67165;50.256;10.978;2023-04-24T08:02:20;13.30;98.00
26575;DHT22;67165;50.256;10.978;2023-04-24T08:04:52;13.30;98.00
26575;DHT22;67165;50.256;10.978;2023-04-24T08:07:18;13.50;98.00
26575;DHT22;67165;50.256;10.978;2023-04-24T08:09:44;13.50;98.00
26575;DHT22;67165;50.256;10.978;2023-04-24T08:12:15;13.40;98.00
26575;DHT22;67165;50.256;10.978;2023-04-24T08:14:41;13.20;98.00
26575;DHT22;67165;50.256;10.978;2023-04-24T08:17:06;13.20;98.00
26575;DHT22;67165;50.256;10.978;2023-04-24T08:19:32;13.10;98.00
26575;DHT22;67165;50.256;10.978;2023-04-24T08:21:58;12.90;98.00
26575;DHT22;67165;50.256;10.978;2023-04-24T08:24:23;12.80;98.00
26575;DHT22;67165;50.256;10.978;2023-04-24T08:26:49;12.80;98.00
26575;DHT22;67165;50.256;10.978;2023-04-24T08:29:16;13.00;98.00
26575;DHT22;67165;50.256;10.978;2023-04-24T08:31:42;13.20;98.00
26575;DHT22;67165;50.256;10.978;2023-04-24T08:34:10;13.30;98.00
26575;DHT22;67165;50.256;10.978;2023-04-24T08:36:36;13.20;98.00
26575;DHT22;67165;50.256;10.978;2023-04-24T08:39:01;13.20;98.00
26575;DHT22;67165;50.256;10.978;2023-04-24T08:41:27;13.20;98.00
26575;DHT22;67165;50.256;10.978;2023-04-24T08:43:53;13.20;98.00
26575;DHT22;67165;50.256;10.978;2023-04-24T08:46:20;13.20;98.00
26575;DHT22;67165;50.256;10.978;2023-04-24T08:48:47;13.20;98.00
26575;DHT22;67165;50.256;10.978;2023-04-24T08:51:15;13.10;98.00
26575;DHT22;67165;50.256;10.978;2023-04-24T08:53:42;13.20;98.00
26575;DHT22;67165;50.256;10.978;2023-04-24T08:56:09;13.10;98.00
26575;DHT22;67165;50.256;10.978;2023-04-24T08:58:39;13.20;98.00
26575;DHT22;67165;50.256;10.978;2023-04-24T09:01:06;13.20;98.00
26575;DHT22;67165;50.256;10.978;2023-04-24T09:03:33;13.40;98.00
26575;DHT22;67165;50.256;10.978;2023-04-24T09:06:02;13.30;98.00
26575;DHT22;67165;50.256;10.978;2023-04-24T09:08:34;13.20;98.00
26575;DHT22;67165;50.256;10.978;2023-04-24T09:11:09;13.30;98.00
26575;DHT22;67165;50.256;10.978;2023-04-24T09:13:41;13.30;98.00
26575;DHT22;67165;50.256;10.978;2023-04-24T09:16:36;13.40;98.00
26575;DHT22;67165;50.256;10.978;2023-04-24T09:19:05;13.30;98.00
26575;DHT22;67165;50.256;10.978;2023-04-24T09:21:36;13.30;98.00
26575;DHT22;67165;50.256;10.978;2023-04-24T09:24:05;13.40;98.00
26575;DHT22;67165;50.256;10.978;2023-04-24T09:26:35;13.50;98.00
26575;DHT22;67165;50.256;10.978;2023-04-24T09:29:05;13.50;98.00
26575;DHT22;67165;50.256;10.978;2023-04-24T09:31:33;13.60;98.00
26575;DHT22;67165;50.256;10.978;2023-04-24T09:34:04;13.60;98.00
26575;DHT22;67165;50.256;10.978;2023-04-24T09:36:42;13.80;98.00
26575;DHT22;67165;50.256;10.978;2023-04-24T09:39:09;14.00;98.00
26575;DHT22;67165;50.256;10.978;2023-04-24T09:41:58;13.90;98.00
26575;DHT22;67165;50.256;10.978;2023-04-24T09:44:36;14.00;98.00
26575;DHT22;67165;50.256;10.978;2023-04-24T09:47:19;14.00;98.00
26575;DHT22;67165;50.256;10.978;2023-04-24T09:49:47;14.20;98.00
26575;DHT22;67165;50.256;10.978;2023-04-24T09:52:16;14.40;98.00
26575;DHT22;67165;50.256;10.978;2023-04-24T09:54:52;14.40;98.00
26575;DHT22;67165;50.256;10.978;2023-04-24T09:57:22;14.10;98.00
26575;DHT22;67165;50.256;10.978;2023-04-24T09:59:47;14.00;98.00
26575;DHT22;67165;50.256;10.978;2023-04-24T10:02:20;13.70;98.00
26575;DHT22;67165;50.256;10.978;2023-04-24T10:04:56;13.50;98.00
26575;DHT22;67165;50.256;10.978;2023-04-24T10:07:27;13.40;98.00
26575;DHT22;67165;50.256;10.978;2023-04-24T10:09:54;13.40;98.00
26575;DHT22;67165;50.256;10.978;2023-04-24T10:12:23;13.30;98.00
26575;DHT22;67165;50.256;10.978;2023-04-24T10:14:50;13.40;98.00
26575;DHT22;67165;50.256;10.978;2023-04-24T10:17:20;13.40;98.00
26575;DHT22;67165;50.256;10.978;2023-04-24T10:19:47;13.50;98.00
26575;DHT22;67165;50.256;10.978;2023-04-24T10:22:14;13.50;98.00
26575;DHT22;67165;50.256;10.978;2023-04-24T10:24:45;13.70;98.00
26575;DHT22;67165;50.256;10.978;2023-04-24T10:27:13;13.80;98.00
26575;DHT22;67165;50.256;10.978;2023-04-24T10:29:41;14.10;98.00
26575;DHT22;67165;50.256;10.978;2023-04-24T10:32:09;14.30;98.00
26575;DHT22;67165;50.256;10.978;2023-04-24T10:34:39;14.40;98.00
26575;DHT22;67165;50.256;10.978;2023-04-24T10:37:10;14.50;98.00
26575;DHT22;67165;50.256;10.978;2023-04-24T10:39:39;14.40;98.00
26575;DHT22;67165;50.256;10.978;2023-04-24T10:42:15;14.40;98.00
26575;DHT22;67165;50.256;10.978;2023-04-24T10:44:41;14.50;98.00
26575;DHT22;67165;50.256;10.978;2023-04-24T10:47:14;14.60;98.00
26575;DHT22;67165;50.256;10.978;2023-04-24T10:49:50;14.50;98.00
26575;DHT22;67165;50.256;10.978;2023-04-24T10:52:20;14.40;98.00
26575;DHT22;67165;50.256;10.978;2023-04-24T10:54:47;14.50;98.00
26575;DHT22;67165;50.256;10.978;2023-04-24T11:00:09;14.70;98.00
26575;DHT22;67165;50.256;10.978;2023-04-24T11:02:37;14.70;98.00
26575;DHT22;67165;50.256;10.978;2023-04-24T11:05:04;14.70;98.00
26575;DHT22;67165;50.256;10.978;2023-04-24T11:07:30;14.60;98.00
26575;DHT22;67165;50.256;10.978;2023-04-24T11:09:59;14.70;98.00
26575;DHT22;67165;50.256;10.978;2023-04-24T11:12:27;14.80;98.00
26575;DHT22;67165;50.256;10.978;2023-04-24T11:17:36;14.90;98.00
26575;DHT22;67165;50.256;10.978;2023-04-24T11:20:16;15.00;98.00
26575;DHT22;67165;50.256;10.978;2023-04-24T11:22:42;14.90;98.00
26575;DHT22;67165;50.256;10.978;2023-04-24T11:25:09;14.80;98.00
26575;DHT22;67165;50.256;10.978;2023-04-24T11:27:44;14.70;98.00
26575;DHT22;67165;50.256;10.978;2023-04-24T11:30:17;14.50;98.00
26575;DHT22;67165;50.256;10.978;2023-04-24T11:32:52;14.40;98.00
26575;DHT22;67165;50.256;10.978;2023-04-24T11:35:20;14.40;98.00
26575;DHT22;67165;50.256;10.978;2023-04-24T11:37:56;14.30;98.00
26575;DHT22;67165;50.256;10.978;2023-04-24T11:40:22;14.10;98.00
26575;DHT22;67165;50.256;10.978;2023-04-24T11:42:50;14.10;98.00
26575;DHT22;67165;50.256;10.978;2023-04-24T11:45:21;14.00;98.00
26575;DHT22;67165;50.256;10.978;2023-04-24T11:47:47;14.20;98.00
26575;DHT22;67165;50.256;10.978;2023-04-24T11:50:18;14.30;98.00
26575;DHT22;67165;50.256;10.978;2023-04-24T11:52:46;14.40;98.00
26575;DHT22;67165;50.256;10.978;2023-04-24T11:57:48;14.30;98.00
26575;DHT22;67165;50.256;10.978;2023-04-24T12:00:17;14.30;98.00
26575;DHT22;67165;50.256;10.978;2023-04-24T12:02:44;14.10;98.00
26575;DHT22;67165;50.256;10.978;2023-04-24T12:05:22;14.10;98.00
26575;DHT22;67165;50.256;10.978;2023-04-24T12:07:48;14.10;98.00
26575;DHT22;67165;50.256;10.978;2023-04-24T12:10:19;14.00;98.00
26575;DHT22;67165;50.256;10.978;2023-04-24T12:12:45;13.90;98.00
26575;DHT22;67165;50.256;10.978;2023-04-24T12:15:12;13.80;98.00
26575;DHT22;67165;50.256;10.978;2023-04-24T12:17:41;13.70;98.00
26575;DHT22;67165;50.256;10.978;2023-04-24T12:20:08;13.60;98.00
26575;DHT22;67165;50.256;10.978;2023-04-24T12:22:47;13.50;98.00
26575;DHT22;67165;50.256;10.978;2023-04-24T12:25:15;13.30;98.00
26575;DHT22;67165;50.256;10.978;2023-04-24T12:27:42;13.20;98.00
26575;DHT22;67165;50.256;10.978;2023-04-24T12:30:14;13.00;98.00
26575;DHT22;67165;50.256;10.978;2023-04-24T12:32:49;13.00;98.00
26575;DHT22;67165;50.256;10.978;2023-04-24T12:35:22;13.10;98.00
26575;DHT22;67165;50.256;10.978;2023-04-24T12:37:48;13.40;98.00
26575;DHT22;67165;50.256;10.978;2023-04-24T12:40:14;13.50;98.00
26575;DHT22;67165;50.256;10.978;2023-04-24T12:42:49;13.80;98.00
26575;DHT22;67165;50.256;10.978;2023-04-24T12:45:19;14.00;98.00
26575;DHT22;67165;50.256;10.978;2023-04-24T12:47:52;14.30;98.00
26575;DHT22;67165;50.256;10.978;2023-04-24T12:50:18;14.50;98.00
26575;DHT22;67165;50.256;10.978;2023-04-24T12:52:47;14.80;98.00
26575;DHT22;67165;50.256;10.978;2023-04-24T12:55:20;14.90;98.00
26575;DHT22;67165;50.256;10.978;2023-04-24T12:57:49;15.00;98.00
26575;DHT22;67165;50.256;10.978;2023-04-24T13:00:17;15.00;98.00
26575;DHT22;67165;50.256;10.978;2023-04-24T13:02:43;15.10;98.00
26575;DHT22;67165;50.256;10.978;2023-04-24T13:05:12;15.20;98.00
26575;DHT22;67165;50.256;10.978;2023-04-24T13:07:43;15.30;98.00
26575;DHT22;67165;50.256;10.978;2023-04-24T13:10:09;15.40;98.00
26575;DHT22;67165;50.256;10.978;2023-04-24T13:12:41;15.30;98.00
26575;DHT22;67165;50.256;10.978;2023-04-24T13:15:13;15.30;98.00
26575;DHT22;67165;50.256;10.978;2023-04-24T13:17:39;15.00;98.00
26575;DHT22;67165;50.256;10.978;2023-04-24T13:20:12;14.80;98.00
26575;DHT22;67165;50.256;10.978;2023-04-24T13:22:40;14.30;98.00
26575;DHT22;67165;50.256;10.978;2023-04-24T13:25:11;14.00;98.00
26575;DHT22;67165;50.256;10.978;2023-04-24T13:27:38;13.90;98.00
26575;DHT22;67165;50.256;10.978;2023-04-24T13:30:07;13.70;98.00
26575;DHT22;67165;50.256;10.978;2023-04-24T13:32:33;13.50;98.00
26575;DHT22;67165;50.256;10.978;2023-04-24T13:35:00;13.30;98.00
26575;DHT22;67165;50.256;10.978;2023-04-24T13:37:31;13.20;98.00
26575;DHT22;67165;50.256;10.978;2023-04-24T13:39:57;13.10;98.00
26575;DHT22;67165;50.256;10.978;2023-04-24T13:42:22;13.10;98.00
26575;DHT22;67165;50.256;10.978;2023-04-24T13:44:48;13.20;98.00
26575;DHT22;67165;50.256;10.978;2023-04-24T13:47:19;13.40;98.00
26575;DHT22;67165;50.256;10.978;2023-04-24T13:49:48;13.60;98.00
26575;DHT22;67165;50.256;10.978;2023-04-24T13:52:14;13.70;98.00
26575;DHT22;67165;50.256;10.978;2023-04-24T13:54:40;13.70;98.00
26575;DHT22;67165;50.256;10.978;2023-04-24T13:57:06;13.70;98.00
26575;DHT22;67165;50.256;10.978;2023-04-24T13:59:31;13.70;98.00
26575;DHT22;67165;50.256;10.978;2023-04-24T14:01:57;13.70;98.00
26575;DHT22;67165;50.256;10.978;2023-04-24T14:04:23;13.70;98.00
26575;DHT22;67165;50.256;10.978;2023-04-24T14:06:51;13.60;98.00
26575;DHT22;67165;50.256;10.978;2023-04-24T14:09:17;13.60;98.00
26575;DHT22;67165;50.256;10.978;2023-04-24T14:11:42;13.50;98.00
26575;DHT22;67165;50.256;10.978;2023-04-24T14:14:08;13.30;98.00
26575;DHT22;67165;50.256;10.978;2023-04-24T14:16:34;13.20;98.00
26575;DHT22;67165;50.256;10.978;2023-04-24T14:19:00;13.10;98.00
26575;DHT22;67165;50.256;10.978;2023-04-24T14:21:26;12.90;98.00
26575;DHT22;67165;50.256;10.978;2023-04-24T14:23:54;12.80;98.00
26575;DHT22;67165;50.256;10.978;2023-04-24T14:26:20;12.50;98.00
26575;DHT22;67165;50.256;10.978;2023-04-24T14:28:48;12.60;98.00
26575;DHT22;67165;50.256;10.978;2023-04-24T14:31:18;12.50;98.00
26575;DHT22;67165;50.256;10.978;2023-04-24T14:33:48;12.50;98.00
26575;DHT22;67165;50.256;10.978;2023-04-24T14:36:14;12.60;98.00
26575;DHT22;67165;50.256;10.978;2023-04-24T14:38:39;12.70;98.00
26575;DHT22;67165;50.256;10.978;2023-04-24T14:41:08;12.80;98.00
26575;DHT22;67165;50.256;10.978;2023-04-24T14:43:35;12.90;98.00
26575;DHT22;67165;50.256;10.978;2023-04-24T14:46:07;12.90;98.00
26575;DHT22;67165;50.256;10.978;2023-04-24T14:48:38;12.80;98.00
26575;DHT22;67165;50.256;10.978;2023-04-24T14:51:14;12.70;98.00
26575;DHT22;67165;50.256;10.978;2023-04-24T14:53:42;12.80;98.00
26575;DHT22;67165;50.256;10.978;2023-04-24T14:56:21;12.90;98.00
26575;DHT22;67165;50.256;10.978;2023-04-24T14:59:02;13.10;98.00
26575;DHT22;67165;50.256;10.978;2023-04-24T15:01:36;13.20;98.00
26575;DHT22;67165;50.256;10.978;2023-04-24T15:04:01;13.20;98.00
26575;DHT22;67165;50.256;10.978;2023-04-24T15:06:27;13.10;98.00
26575;DHT22;67165;50.256;10.978;2023-04-24T15:08:56;13.00;98.00
26575;DHT22;67165;50.256;10.978;2023-04-24T15:11:24;13.00;98.00
26575;DHT22;67165;50.256;10.978;2023-04-24T15:13:53;13.00;98.00
26575;DHT22;67165;50.256;10.978;2023-04-24T15:16:18;13.00;98.00
26575;DHT22;67165;50.256;10.978;2023-04-24T15:18:44;12.90;98.00
26575;DHT22;67165;50.256;10.978;2023-04-24T15:21:10;12.90;98.00
26575;DHT22;67165;50.256;10.978;2023-04-24T15:23:38;12.90;98.00
26575;DHT22;67165;50.256;10.978;2023-04-24T15:26:03;12.70;98.00
26575;DHT22;67165;50.256;10.978;2023-04-24T15:28:32;12.60;98.00
26575;DHT22;67165;50.256;10.978;2023-04-24T15:30:58;12.40;98.00
26575;DHT22;67165;50.256;10.978;2023-04-24T15:33:24;12.30;98.00
26575;DHT22;67165;50.256;10.978;2023-04-24T15:35:51;12.10;98.00